sensor_id;sensor_type;location;lat;lon;timestamp;temperature;humidity
21551;DHT22;10936;49.836;7.078;2023-02-28T06:00:35;-3.90;99.90
21551;DHT22;10936;49.836;7.078;2023-02-28T06:03:00;-3.90;99.90
21551;DHT22;10936;49.836;7.078;2023-02-28T06:05:27;-3.90;99.90
21551;DHT22;10936;49.836;7.078;2023-02-28T06:07:53;-3.90;99.90
21551;DHT22;10936;49.836;7.078;2023-02-28T06:10:19;-3.90;99.90
21551;DHT22;10936;49.836;7.078;2023-02-28T06:12:45;-3.90;99.90
21551;DHT22;10936;49.836;7.078;2023-02-28T06:15:14;-3.80;99.90
21551;DHT22;10936;49.836;7.078;2023-02-28T06:17:41;-3.80;99.90
21551;DHT22;10936;49.836;7.078;2023-02-28T06:20:08;-3.90;99.90
21551;DHT22;10936;49.836;7.078;2023-02-28T06:22:35;-3.90;99.90
21551;DHT22;10936;49.836;7.078;2023-02-28T06:25:01;-3.80;99.90
21551;DHT22;10936;49.836;7.078;2023-02-28T06:27:26;-3.80;99.90
21551;DHT22;10936;49.836;7.078;2023-02-28T06:29:54;-3.80;99.90
21551;DHT22;10936;49.836;7.078;2023-02-28T06:32:21;-3.70;99.90
21551;DHT22;10936;49.836;7.078;2023-02-28T06:34:46;-3.70;99.90
21551;DHT22;10936;49.836;7.078;2023-02-28T06:37:12;-3.50;99.90
21551;DHT22;10936;49.836;7.078;2023-02-28T06:39:38;-3.20;99.90
21551;DHT22;10936;49.836;7.078;2023-02-28T06:42:03;-3.20;99.90
21551;DHT22;10936;49.836;7.078;2023-02-28T06:44:29;-3.00;99.90
21551;DHT22;10936;49.836;7.078;2023-02-28T06:47:01;-3.00;99.90
21551;DHT22;10936;49.836;7.078;2023-02-28T06:49:35;-2.90;99.90
21551;DHT22;10936;49.836;7.078;2023-02-28T06:52:00;-3.00;99.90
21551;DHT22;10936;49.836;7.078;2023-02-28T06:54:26;-2.60;99.90
21551;DHT22;10936;49.836;7.078;2023-02-28T06:56:52;-2.70;99.90
21551;DHT22;10936;49.836;7.078;2023-02-28T06:59:19;-1.90;99.90
21551;DHT22;10936;49.836;7.078;2023-02-28T07:01:45;-0.60;99.90
21551;DHT22;10936;49.836;7.078;2023-02-28T07:04:11;0.60;99.90
21551;DHT22;10936;49.836;7.078;2023-02-28T07:06:38;0.80;99.90
21551;DHT22;10936;49.836;7.078;2023-02-28T07:09:04;1.40;99.90
21551;DHT22;10936;49.836;7.078;2023-02-28T07:11:30;1.50;99.90
21551;DHT22;10936;49.836;7.078;2023-02-28T07:13:56;2.40;99.90
21551;DHT22;10936;49.836;7.078;2023-02-28T07:16:23;3.20;99.90
21551;DHT22;10936;49.836;7.078;2023-02-28T07:18:48;3.00;99.90
21551;DHT22;10936;49.836;7.078;2023-02-28T07:21:14;2.50;99.90
21551;DHT22;10936;49.836;7.078;2023-02-28T07:23:40;3.70;99.90
21551;DHT22;10936;49.836;7.078;2023-02-28T07:26:10;4.90;99.90
21551;DHT22;10936;49.836;7.078;2023-02-28T07:28:36;4.50;99.90
21551;DHT22;10936;49.836;7.078;2023-02-28T07:31:06;3.60;99.90
21551;DHT22;10936;49.836;7.078;2023-02-28T07:33:32;2.60;99.90
21551;DHT22;10936;49.836;7.078;2023-02-28T07:36:11;2.80;99.90
21551;DHT22;10936;49.836;7.078;2023-02-28T07:38:45;3.90;99.90
21551;DHT22;10936;49.836;7.078;2023-02-28T07:41:14;4.10;99.90
21551;DHT22;10936;49.836;7.078;2023-02-28T07:43:40;4.30;99.90
21551;DHT22;10936;49.836;7.078;2023-02-28T07:46:11;5.10;99.90
21551;DHT22;10936;49.836;7.078;2023-02-28T07:48:37;5.30;99.90
21551;DHT22;10936;49.836;7.078;2023-02-28T07:51:03;5.40;99.90
21551;DHT22;10936;49.836;7.078;2023-02-28T07:53:30;6.10;99.90
21551;DHT22;10936;49.836;7.078;2023-02-28T07:55:59;6.30;99.90
21551;DHT22;10936;49.836;7.078;2023-02-28T07:58:27;5.90;99.90
21551;DHT22;10936;49.836;7.078;2023-02-28T08:00:53;5.50;99.90
21551;DHT22;10936;49.836;7.078;2023-02-28T08:03:20;5.40;99.90
21551;DHT22;10936;49.836;7.078;2023-02-28T08:05:46;5.70;99.90
21551;DHT22;10936;49.836;7.078;2023-02-28T08:08:13;5.80;99.90
21551;DHT22;10936;49.836;7.078;2023-02-28T08:10:39;4.20;99.90
21551;DHT22;10936;49.836;7.078;2023-02-28T08:13:04;2.30;99.90
21551;DHT22;10936;49.836;7.078;2023-02-28T08:15:30;0.60;99.90
21551;DHT22;10936;49.836;7.078;2023-02-28T08:17:56;-0.10;99.90
21551;DHT22;10936;49.836;7.078;2023-02-28T08:20:23;0.00;99.90
21551;DHT22;10936;49.836;7.078;2023-02-28T08:22:48;0.80;99.90
21551;DHT22;10936;49.836;7.078;2023-02-28T08:25:14;2.70;99.90
21551;DHT22;10936;49.836;7.078;2023-02-28T08:27:40;3.50;99.90
21551;DHT22;10936;49.836;7.078;2023-02-28T08:30:06;2.30;99.90
21551;DHT22;10936;49.836;7.078;2023-02-28T08:32:33;1.10;99.90
21551;DHT22;10936;49.836;7.078;2023-02-28T08:34:58;0.50;99.90
21551;DHT22;10936;49.836;7.078;2023-02-28T08:37:25;0.20;99.90
21551;DHT22;10936;49.836;7.078;2023-02-28T08:39:50;0.00;99.90
21551;DHT22;10936;49.836;7.078;2023-02-28T08:42:16;0.20;99.90
21551;DHT22;10936;49.836;7.078;2023-02-28T08:44:42;0.40;99.90
21551;DHT22;10936;49.836;7.078;2023-02-28T08:47:08;1.30;99.90
21551;DHT22;10936;49.836;7.078;2023-02-28T08:49:33;2.30;99.90
21551;DHT22;10936;49.836;7.078;2023-02-28T08:51:59;2.00;99.90
21551;DHT22;10936;49.836;7.078;2023-02-28T08:54:25;1.10;99.90
21551;DHT22;10936;49.836;7.078;2023-02-28T08:56:50;0.40;99.90
21551;DHT22;10936;49.836;7.078;2023-02-28T08:59:16;0.30;99.90
21551;DHT22;10936;49.836;7.078;2023-02-28T09:01:41;0.50;99.90
21551;DHT22;10936;49.836;7.078;2023-02-28T09:04:09;0.60;99.90
21551;DHT22;10936;49.836;7.078;2023-02-28T09:06:36;0.70;99.90
21551;DHT22;10936;49.836;7.078;2023-02-28T09:09:01;0.40;99.90
21551;DHT22;10936;49.836;7.078;2023-02-28T09:11:29;0.30;99.90
21551;DHT22;10936;49.836;7.078;2023-02-28T09:13:55;0.50;99.90
21551;DHT22;10936;49.836;7.078;2023-02-28T09:16:24;1.00;99.90
21551;DHT22;10936;49.836;7.078;2023-02-28T09:18:50;1.00;99.90
21551;DHT22;10936;49.836;7.078;2023-02-28T09:21:17;1.00;99.90
21551;DHT22;10936;49.836;7.078;2023-02-28T09:23:43;1.10;99.90
21551;DHT22;10936;49.836;7.078;2023-02-28T09:26:17;1.30;99.90
21551;DHT22;10936;49.836;7.078;2023-02-28T09:28:43;1.50;99.90
21551;DHT22;10936;49.836;7.078;2023-02-28T09:31:19;2.10;99.90
21551;DHT22;10936;49.836;7.078;2023-02-28T09:33:49;3.50;99.90
21551;DHT22;10936;49.836;7.078;2023-02-28T09:36:15;4.90;99.90
21551;DHT22;10936;49.836;7.078;2023-02-28T09:38:41;6.90;99.90
21551;DHT22;10936;49.836;7.078;2023-02-28T09:41:20;8.20;99.90
21551;DHT22;10936;49.836;7.078;2023-02-28T09:43:49;7.80;99.90
21551;DHT22;10936;49.836;7.078;2023-02-28T09:48:57;6.20;99.90
21551;DHT22;10936;49.836;7.078;2023-02-28T09:54:19;5.60;99.90
21551;DHT22;10936;49.836;7.078;2023-02-28T10:05:29;3.70;99.90
21551;DHT22;10936;49.836;7.078;2023-02-28T10:08:18;3.00;99.90
21551;DHT22;10936;49.836;7.078;2023-02-28T10:10:51;2.80;99.90
21551;DHT22;10936;49.836;7.078;2023-02-28T10:16:20;2.30;99.90
21551;DHT22;10936;49.836;7.078;2023-02-28T10:19:02;2.10;99.90
21551;DHT22;10936;49.836;7.078;2023-02-28T10:21:38;2.00;99.90
21551;DHT22;10936;49.836;7.078;2023-02-28T10:24:21;1.80;99.90
21551;DHT22;10936;49.836;7.078;2023-02-28T10:26:49;2.00;99.90
21551;DHT22;10936;49.836;7.078;2023-02-28T10:29:17;1.60;99.90
21551;DHT22;10936;49.836;7.078;2023-02-28T10:31:43;1.70;99.90
21551;DHT22;10936;49.836;7.078;2023-02-28T10:34:12;1.70;99.90
21551;DHT22;10936;49.836;7.078;2023-02-28T10:36:38;1.80;99.90
21551;DHT22;10936;49.836;7.078;2023-02-28T10:39:34;1.50;99.90
21551;DHT22;10936;49.836;7.078;2023-02-28T10:42:00;1.30;99.90
21551;DHT22;10936;49.836;7.078;2023-02-28T10:44:25;1.60;99.90
21551;DHT22;10936;49.836;7.078;2023-02-28T10:46:51;1.50;99.90
21551;DHT22;10936;49.836;7.078;2023-02-28T10:49:27;1.70;99.90
21551;DHT22;10936;49.836;7.078;2023-02-28T10:51:56;1.70;99.90
21551;DHT22;10936;49.836;7.078;2023-02-28T10:54:34;2.40;99.90
21551;DHT22;10936;49.836;7.078;2023-02-28T10:57:19;3.30;99.90
21551;DHT22;10936;49.836;7.078;2023-02-28T10:59:44;4.10;99.90
21551;DHT22;10936;49.836;7.078;2023-02-28T11:02:49;3.90;99.90
21551;DHT22;10936;49.836;7.078;2023-02-28T11:05:32;3.70;99.90
21551;DHT22;10936;49.836;7.078;2023-02-28T11:08:13;3.80;99.90
21551;DHT22;10936;49.836;7.078;2023-02-28T11:10:39;3.80;99.90
21551;DHT22;10936;49.836;7.078;2023-02-28T11:13:17;3.40;99.90
21551;DHT22;10936;49.836;7.078;2023-02-28T11:15:56;3.00;99.90
21551;DHT22;10936;49.836;7.078;2023-02-28T11:18:47;3.00;99.90
21551;DHT22;10936;49.836;7.078;2023-02-28T11:21:21;2.90;99.90
21551;DHT22;10936;49.836;7.078;2023-02-28T11:23:49;3.00;99.90
21551;DHT22;10936;49.836;7.078;2023-02-28T11:26:16;3.20;99.90
21551;DHT22;10936;49.836;7.078;2023-02-28T11:29:11;3.70;99.90
21551;DHT22;10936;49.836;7.078;2023-02-28T11:31:37;2.70;99.90
21551;DHT22;10936;49.836;7.078;2023-02-28T11:34:24;2.30;99.90
21551;DHT22;10936;49.836;7.078;2023-02-28T11:36:52;2.30;99.90
21551;DHT22;10936;49.836;7.078;2023-02-28T11:39:19;3.20;99.90
21551;DHT22;10936;49.836;7.078;2023-02-28T11:47:44;4.70;99.90
21551;DHT22;10936;49.836;7.078;2023-02-28T11:56:29;6.40;99.90
21551;DHT22;10936;49.836;7.078;2023-02-28T12:04:42;6.10;99.90
21551;DHT22;10936;49.836;7.078;2023-02-28T12:12:51;5.90;99.90
21551;DHT22;10936;49.836;7.078;2023-02-28T12:18:28;7.40;99.90
21551;DHT22;10936;49.836;7.078;2023-02-28T12:29:26;5.00;99.90
21551;DHT22;10936;49.836;7.078;2023-02-28T12:34:35;4.50;99.90
21551;DHT22;10936;49.836;7.078;2023-02-28T12:37:07;4.50;99.90
21551;DHT22;10936;49.836;7.078;2023-02-28T12:39:44;3.20;99.90
21551;DHT22;10936;49.836;7.078;2023-02-28T12:42:19;2.50;99.90
21551;DHT22;10936;49.836;7.078;2023-02-28T12:45:24;2.30;99.90
21551;DHT22;10936;49.836;7.078;2023-02-28T12:47:57;2.00;99.90
21551;DHT22;10936;49.836;7.078;2023-02-28T12:50:24;1.70;99.90
21551;DHT22;10936;49.836;7.078;2023-02-28T12:55:57;1.60;99.90
21551;DHT22;10936;49.836;7.078;2023-02-28T12:59:10;1.60;99.90
21551;DHT22;10936;49.836;7.078;2023-02-28T13:04:57;2.00;99.90
21551;DHT22;10936;49.836;7.078;2023-02-28T13:10:15;2.70;99.90
21551;DHT22;10936;49.836;7.078;2023-02-28T13:12:53;2.60;99.90
21551;DHT22;10936;49.836;7.078;2023-02-28T13:15:20;2.30;99.90
21551;DHT22;10936;49.836;7.078;2023-02-28T13:17:55;2.10;99.90
21551;DHT22;10936;49.836;7.078;2023-02-28T13:20:28;2.10;99.90
21551;DHT22;10936;49.836;7.078;2023-02-28T13:22:55;2.00;99.90
21551;DHT22;10936;49.836;7.078;2023-02-28T13:27:52;2.40;99.90
21551;DHT22;10936;49.836;7.078;2023-02-28T13:35:45;2.40;99.90
21551;DHT22;10936;49.836;7.078;2023-02-28T13:46:38;2.60;99.90
21551;DHT22;10936;49.836;7.078;2023-02-28T13:49:31;2.50;99.90
21551;DHT22;10936;49.836;7.078;2023-02-28T13:54:39;2.40;99.90
21551;DHT22;10936;49.836;7.078;2023-02-28T13:58:28;2.40;99.90
21551;DHT22;10936;49.836;7.078;2023-02-28T14:00:51;2.20;99.90
21551;DHT22;10936;49.836;7.078;2023-02-28T14:06:33;2.10;99.90
21551;DHT22;10936;49.836;7.078;2023-02-28T14:09:19;2.20;99.90
21551;DHT22;10936;49.836;7.078;2023-02-28T14:11:47;2.40;99.90
21551;DHT22;10936;49.836;7.078;2023-02-28T14:17:14;2.40;99.90
21551;DHT22;10936;49.836;7.078;2023-02-28T14:19:44;2.30;99.90
21551;DHT22;10936;49.836;7.078;2023-02-28T14:22:47;2.40;99.90
21551;DHT22;10936;49.836;7.078;2023-02-28T14:25:36;2.50;99.90
21551;DHT22;10936;49.836;7.078;2023-02-28T14:30:56;2.50;99.90
21551;DHT22;10936;49.836;7.078;2023-02-28T14:36:12;2.60;99.90
21551;DHT22;10936;49.836;7.078;2023-02-28T14:38:57;2.50;99.90
21551;DHT22;10936;49.836;7.078;2023-02-28T14:44:00;2.50;99.90
21551;DHT22;10936;49.836;7.078;2023-02-28T14:46:32;2.30;99.90
21551;DHT22;10936;49.836;7.078;2023-02-28T14:49:00;2.30;99.90
21551;DHT22;10936;49.836;7.078;2023-02-28T14:51:26;2.20;99.90
21551;DHT22;10936;49.836;7.078;2023-02-28T14:53:57;2.20;99.90
21551;DHT22;10936;49.836;7.078;2023-02-28T14:56:36;2.20;99.90
21551;DHT22;10936;49.836;7.078;2023-02-28T14:59:04;2.30;99.90
21551;DHT22;10936;49.836;7.078;2023-02-28T15:01:30;2.30;99.90
21551;DHT22;10936;49.836;7.078;2023-02-28T15:04:04;2.30;99.90
21551;DHT22;10936;49.836;7.078;2023-02-28T15:06:31;2.30;99.90
21551;DHT22;10936;49.836;7.078;2023-02-28T15:09:14;2.30;99.90
21551;DHT22;10936;49.836;7.078;2023-02-28T15:11:40;2.40;99.90
21551;DHT22;10936;49.836;7.078;2023-02-28T15:14:06;2.50;99.90
21551;DHT22;10936;49.836;7.078;2023-02-28T15:16:35;2.50;99.90
21551;DHT22;10936;49.836;7.078;2023-02-28T15:22:00;2.40;99.90
21551;DHT22;10936;49.836;7.078;2023-02-28T15:24:46;2.40;99.90
21551;DHT22;10936;49.836;7.078;2023-02-28T15:27:22;2.50;99.90
21551;DHT22;10936;49.836;7.078;2023-02-28T15:29:50;2.40;99.90
21551;DHT22;10936;49.836;7.078;2023-02-28T15:34:47;2.20;99.90
21551;DHT22;10936;49.836;7.078;2023-02-28T15:40:10;2.30;99.90
21551;DHT22;10936;49.836;7.078;2023-02-28T15:42:36;2.30;99.90
21551;DHT22;10936;49.836;7.078;2023-02-28T15:45:02;2.30;99.90
21551;DHT22;10936;49.836;7.078;2023-02-28T15:47:29;2.20;99.90
21551;DHT22;10936;49.836;7.078;2023-02-28T15:49:58;2.20;99.90
21551;DHT22;10936;49.836;7.078;2023-02-28T15:52:37;2.30;99.90
21551;DHT22;10936;49.836;7.078;2023-02-28T15:55:26;2.30;99.90
21551;DHT22;10936;49.836;7.078;2023-02-28T15:58:01;2.30;99.90
21551;DHT22;10936;49.836;7.078;2023-02-28T16:00:29;2.30;99.90
21551;DHT22;10936;49.836;7.078;2023-02-28T16:02:55;2.20;99.90
21551;DHT22;10936;49.836;7.078;2023-02-28T16:05:24;2.10;99.90
21551;DHT22;10936;49.836;7.078;2023-02-28T16:07:56;2.10;99.90
21551;DHT22;10936;49.836;7.078;2023-02-28T16:10:24;2.00;99.90
21551;DHT22;10936;49.836;7.078;2023-02-28T16:12:53;2.10;99.90
21551;DHT22;10936;49.836;7.078;2023-02-28T16:15:26;2.00;99.90
21551;DHT22;10936;49.836;7.078;2023-02-28T16:17:53;2.00;99.90
21551;DHT22;10936;49.836;7.078;2023-02-28T16:20:27;1.90;99.90
21551;DHT22;10936;49.836;7.078;2023-02-28T16:22:53;1.80;99.90
21551;DHT22;10936;49.836;7.078;2023-02-28T16:25:23;1.80;99.90
21551;DHT22;10936;49.836;7.078;2023-02-28T16:27:52;1.80;99.90
21551;DHT22;10936;49.836;7.078;2023-02-28T16:30:24;1.80;99.90
21551;DHT22;10936;49.836;7.078;2023-02-28T16:32:53;1.70;99.90
21551;DHT22;10936;49.836;7.078;2023-02-28T16:35:19;1.70;99.90
21551;DHT22;10936;49.836;7.078;2023-02-28T16:37:46;1.60;99.90
21551;DHT22;10936;49.836;7.078;2023-02-28T16:40:20;1.50;99.90
21551;DHT22;10936;49.836;7.078;2023-02-28T16:42:47;1.60;99.90
21551;DHT22;10936;49.836;7.078;2023-02-28T16:45:23;1.40;99.90
21551;DHT22;10936;49.836;7.078;2023-02-28T16:47:48;1.40;99.90
21551;DHT22;10936;49.836;7.078;2023-02-28T16:50:16;1.40;99.90
21551;DHT22;10936;49.836;7.078;2023-02-28T16:52:42;1.40;99.90
21551;DHT22;10936;49.836;7.078;2023-02-28T16:55:08;1.30;99.90
21551;DHT22;10936;49.836;7.078;2023-02-28T16:57:34;1.20;99.90
21551;DHT22;10936;49.836;7.078;2023-02-28T16:59:59;1.10;99.90
21551;DHT22;10936;49.836;7.078;2023-02-28T17:02:25;1.10;99.90
21551;DHT22;10936;49.836;7.078;2023-02-28T17:04:50;1.10;99.90
21551;DHT22;10936;49.836;7.078;2023-02-28T17:07:16;1.00;99.90
21551;DHT22;10936;49.836;7.078;2023-02-28T17:09:43;0.80;99.90
21551;DHT22;10936;49.836;7.078;2023-02-28T17:12:09;0.70;99.90
21551;DHT22;10936;49.836;7.078;2023-02-28T17:14:36;0.60;99.90
21551;DHT22;10936;49.836;7.078;2023-02-28T17:17:02;0.50;99.90
21551;DHT22;10936;49.836;7.078;2023-02-28T17:19:29;0.50;99.90
21551;DHT22;10936;49.836;7.078;2023-02-28T17:21:54;0.40;99.90
21551;DHT22;10936;49.836;7.078;2023-02-28T17:24:20;0.50;99.90
21551;DHT22;10936;49.836;7.078;2023-02-28T17:26:45;0.40;99.90
21551;DHT22;10936;49.836;7.078;2023-02-28T17:29:16;0.30;99.90
21551;DHT22;10936;49.836;7.078;2023-02-28T17:31:42;0.30;99.90
21551;DHT22;10936;49.836;7.078;2023-02-28T17:34:08;0.30;99.90
21551;DHT22;10936;49.836;7.078;2023-02-28T17:36:34;0.30;99.90
21551;DHT22;10936;49.836;7.078;2023-02-28T17:39:01;0.20;99.90
21551;DHT22;10936;49.836;7.078;2023-02-28T17:41:26;0.20;99.90
21551;DHT22;10936;49.836;7.078;2023-02-28T17:43:52;0.20;99.90
21551;DHT22;10936;49.836;7.078;2023-02-28T17:46:20;0.10;99.90
21551;DHT22;10936;49.836;7.078;2023-02-28T17:48:47;0.10;99.90
21551;DHT22;10936;49.836;7.078;2023-02-28T17:51:13;0.10;99.90
21551;DHT22;10936;49.836;7.078;2023-02-28T17:53:39;0.10;99.90
21551;DHT22;10936;49.836;7.078;2023-02-28T17:56:13;0.00;99.90
21551;DHT22;10936;49.836;7.078;2023-02-28T17:58:39;-0.10;99.90
21551;DHT22;10936;49.836;7.078;2023-02-28T18:01:05;-0.20;99.90
21551;DHT22;10936;49.836;7.078;2023-02-28T18:03:30;-0.30;99.90
21551;DHT22;10936;49.836;7.078;2023-02-28T18:05:57;-0.40;99.90
21551;DHT22;10936;49.836;7.078;2023-02-28T18:08:23;-0.40;99.90
21551;DHT22;10936;49.836;7.078;2023-02-28T18:10:49;-0.50;99.90
21551;DHT22;10936;49.836;7.078;2023-02-28T18:13:15;-0.50;99.90
21551;DHT22;10936;49.836;7.078;2023-02-28T18:15:40;-0.60;99.90
21551;DHT22;10936;49.836;7.078;2023-02-28T18:18:06;-0.60;99.90
21551;DHT22;10936;49.836;7.078;2023-02-28T18:20:33;-0.50;99.90
21551;DHT22;10936;49.836;7.078;2023-02-28T18:22:58;-0.60;99.90
21551;DHT22;10936;49.836;7.078;2023-02-28T18:25:24;-0.60;99.90
21551;DHT22;10936;49.836;7.078;2023-02-28T18:27:50;-0.60;99.90
21551;DHT22;10936;49.836;7.078;2023-02-28T18:30:26;-0.60;99.90
21551;DHT22;10936;49.836;7.078;2023-02-28T18:32:54;-0.60;99.90
21551;DHT22;10936;49.836;7.078;2023-02-28T18:35:22;-0.70;99.90
21551;DHT22;10936;49.836;7.078;2023-02-28T18:38:00;-0.70;99.90
21551;DHT22;10936;49.836;7.078;2023-02-28T18:40:26;-0.70;99.90
21551;DHT22;10936;49.836;7.078;2023-02-28T18:42:52;-0.70;99.90
21551;DHT22;10936;49.836;7.078;2023-02-28T18:45:17;-0.70;99.90
21551;DHT22;10936;49.836;7.078;2023-02-28T18:47:43;-0.80;99.90
21551;DHT22;10936;49.836;7.078;2023-02-28T18:50:09;-0.80;99.90
21551;DHT22;10936;49.836;7.078;2023-02-28T18:52:35;-0.70;99.90
21551;DHT22;10936;49.836;7.078;2023-02-28T18:55:00;-0.80;99.90
21551;DHT22;10936;49.836;7.078;2023-02-28T18:57:27;-0.80;99.90
21551;DHT22;10936;49.836;7.078;2023-02-28T18:59:53;-0.80;99.90
21551;DHT22;10936;49.836;7.078;2023-02-28T19:02:18;-0.80;99.90
21551;DHT22;10936;49.836;7.078;2023-02-28T19:04:44;-0.80;99.90
21551;DHT22;10936;49.836;7.078;2023-02-28T19:07:09;-0.90;99.90
21551;DHT22;10936;49.836;7.078;2023-02-28T19:09:35;-0.90;99.90
21551;DHT22;10936;49.836;7.078;2023-02-28T19:12:00;-0.90;99.90
21551;DHT22;10936;49.836;7.078;2023-02-28T19:14:26;-0.90;99.90
21551;DHT22;10936;49.836;7.078;2023-02-28T19:16:52;-1.00;99.90
21551;DHT22;10936;49.836;7.078;2023-02-28T19:19:17;-1.00;99.90
21551;DHT22;10936;49.836;7.078;2023-02-28T19:21:43;-1.00;99.90
21551;DHT22;10936;49.836;7.078;2023-02-28T19:24:08;-1.00;99.90
21551;DHT22;10936;49.836;7.078;2023-02-28T19:26:34;-0.90;99.90
21551;DHT22;10936;49.836;7.078;2023-02-28T19:29:02;-0.90;99.90
21551;DHT22;10936;49.836;7.078;2023-02-28T19:31:28;-0.90;99.90
21551;DHT22;10936;49.836;7.078;2023-02-28T19:33:53;-0.90;99.90
21551;DHT22;10936;49.836;7.078;2023-02-28T19:36:20;-0.90;99.90
21551;DHT22;10936;49.836;7.078;2023-02-28T19:38:46;-0.90;99.90
21551;DHT22;10936;49.836;7.078;2023-02-28T19:41:13;-1.00;99.90
21551;DHT22;10936;49.836;7.078;2023-02-28T19:43:39;-0.90;99.90
21551;DHT22;10936;49.836;7.078;2023-02-28T19:46:05;-0.90;99.90
21551;DHT22;10936;49.836;7.078;2023-02-28T19:48:32;-0.90;99.90
21551;DHT22;10936;49.836;7.078;2023-02-28T19:50:58;-0.90;99.90
21551;DHT22;10936;49.836;7.078;2023-02-28T19:53:26;-0.90;99.90
21551;DHT22;10936;49.836;7.078;2023-02-28T19:55:53;-0.80;99.90
21551;DHT22;10936;49.836;7.078;2023-02-28T19:58:19;-0.80;99.90
21551;DHT22;10936;49.836;7.078;2023-02-28T20:00:45;-0.90;99.90
21551;DHT22;10936;49.836;7.078;2023-02-28T20:03:10;-0.90;99.90
21551;DHT22;10936;49.836;7.078;2023-02-28T20:05:37;-0.90;99.90
21551;DHT22;10936;49.836;7.078;2023-02-28T20:08:03;-0.90;99.90
21551;DHT22;10936;49.836;7.078;2023-02-28T20:10:28;-0.80;99.90
21551;DHT22;10936;49.836;7.078;2023-02-28T20:12:55;-0.80;99.90
21551;DHT22;10936;49.836;7.078;2023-02-28T20:15:21;-0.90;99.90
21551;DHT22;10936;49.836;7.078;2023-02-28T20:17:47;-0.80;99.90
21551;DHT22;10936;49.836;7.078;2023-02-28T20:20:13;-0.80;99.90
21551;DHT22;10936;49.836;7.078;2023-02-28T20:22:38;-0.80;99.90
21551;DHT22;10936;49.836;7.078;2023-02-28T20:25:05;-0.90;99.90
21551;DHT22;10936;49.836;7.078;2023-02-28T20:27:32;-0.80;99.90
21551;DHT22;10936;49.836;7.078;2023-02-28T20:30:00;-0.80;99.90
21551;DHT22;10936;49.836;7.078;2023-02-28T20:32:25;-0.80;99.90
21551;DHT22;10936;49.836;7.078;2023-02-28T20:34:51;-0.90;99.90
21551;DHT22;10936;49.836;7.078;2023-02-28T20:37:17;-0.80;99.90
21551;DHT22;10936;49.836;7.078;2023-02-28T20:39:43;-0.90;99.90
21551;DHT22;10936;49.836;7.078;2023-02-28T20:42:08;-0.90;99.90
21551;DHT22;10936;49.836;7.078;2023-02-28T20:44:34;-0.90;99.90
21551;DHT22;10936;49.836;7.078;2023-02-28T20:47:00;-1.00;99.90
21551;DHT22;10936;49.836;7.078;2023-02-28T20:49:25;-1.00;99.90
21551;DHT22;10936;49.836;7.078;2023-02-28T20:51:51;-1.00;99.90
21551;DHT22;10936;49.836;7.078;2023-02-28T20:54:16;-1.10;99.90
21551;DHT22;10936;49.836;7.078;2023-02-28T20:56:42;-1.00;99.90
21551;DHT22;10936;49.836;7.078;2023-02-28T20:59:09;-1.00;99.90
21551;DHT22;10936;49.836;7.078;2023-02-28T21:01:35;-1.00;99.90
21551;DHT22;10936;49.836;7.078;2023-02-28T21:04:04;-0.90;99.90
21551;DHT22;10936;49.836;7.078;2023-02-28T21:06:35;-0.90;99.90
21551;DHT22;10936;49.836;7.078;2023-02-28T21:09:04;-1.00;99.90
21551;DHT22;10936;49.836;7.078;2023-02-28T21:11:32;-1.00;99.90
21551;DHT22;10936;49.836;7.078;2023-02-28T21:13:59;-1.00;99.90
21551;DHT22;10936;49.836;7.078;2023-02-28T21:16:26;-1.00;99.90
21551;DHT22;10936;49.836;7.078;2023-02-28T21:18:54;-1.00;99.90
21551;DHT22;10936;49.836;7.078;2023-02-28T21:21:22;-1.10;99.90
21551;DHT22;10936;49.836;7.078;2023-02-28T21:23:49;-1.10;99.90
21551;DHT22;10936;49.836;7.078;2023-02-28T21:26:17;-1.10;99.90
21551;DHT22;10936;49.836;7.078;2023-02-28T21:28:48;-1.20;99.90
21551;DHT22;10936;49.836;7.078;2023-02-28T21:31:15;-1.10;99.90
21551;DHT22;10936;49.836;7.078;2023-02-28T21:33:42;-1.20;99.90
21551;DHT22;10936;49.836;7.078;2023-02-28T21:36:16;-1.20;99.90
21551;DHT22;10936;49.836;7.078;2023-02-28T21:38:44;-1.20;99.90
21551;DHT22;10936;49.836;7.078;2023-02-28T21:41:16;-1.30;99.90
21551;DHT22;10936;49.836;7.078;2023-02-28T21:43:42;-1.30;99.90
21551;DHT22;10936;49.836;7.078;2023-02-28T21:46:10;-1.40;99.90
21551;DHT22;10936;49.836;7.078;2023-02-28T21:48:36;-1.40;99.90
21551;DHT22;10936;49.836;7.078;2023-02-28T21:51:07;-1.40;99.90
21551;DHT22;10936;49.836;7.078;2023-02-28T21:53:35;-1.40;99.90
21551;DHT22;10936;49.836;7.078;2023-02-28T21:56:05;-1.40;99.90
21551;DHT22;10936;49.836;7.078;2023-02-28T21:58:31;-1.40;99.90
21551;DHT22;10936;49.836;7.078;2023-02-28T22:01:05;-1.50;99.90
21551;DHT22;10936;49.836;7.078;2023-02-28T22:03:32;-1.50;99.90
21551;DHT22;10936;49.836;7.078;2023-02-28T22:05:57;-1.50;99.90
21551;DHT22;10936;49.836;7.078;2023-02-28T22:08:23;-1.60;99.90
21551;DHT22;10936;49.836;7.078;2023-02-28T22:10:48;-1.60;99.90
21551;DHT22;10936;49.836;7.078;2023-02-28T22:13:14;-1.60;99.90
21551;DHT22;10936;49.836;7.078;2023-02-28T22:15:39;-1.60;99.90
21551;DHT22;10936;49.836;7.078;2023-02-28T22:18:05;-1.60;99.90
21551;DHT22;10936;49.836;7.078;2023-02-28T22:20:31;-1.60;99.90
21551;DHT22;10936;49.836;7.078;2023-02-28T22:22:57;-1.70;99.90
21551;DHT22;10936;49.836;7.078;2023-02-28T22:25:22;-1.70;99.90
21551;DHT22;10936;49.836;7.078;2023-02-28T22:27:48;-1.70;99.90
